createdAt,value
2022-11-10T00:00:48.244Z,25.83
2022-11-10T00:03:35.561Z,20.65
2022-11-10T00:06:22.671Z,23.50
2022-11-10T00:09:12.927Z,19.80
2022-11-10T00:11:59.605Z,22.45
2022-11-10T00:15:04.093Z,23.95
2022-11-10T00:17:50.026Z,21.60
2022-11-10T00:20:36.381Z,22.60
2022-11-10T00:23:22.373Z,22.60
2022-11-10T00:26:13.840Z,24.45
2022-11-10T00:29:02.558Z,24.10
2022-11-10T00:31:48.642Z,22.35
2022-11-10T00:34:35.195Z,24.65
2022-11-10T00:37:20.766Z,26.10
2022-11-10T00:40:08.516Z,25.08
2022-11-10T00:42:54.050Z,24.42
2022-11-10T00:45:43.931Z,27.23
2022-11-10T00:48:30.096Z,25.42
2022-11-10T00:51:26.271Z,25.75
2022-11-10T00:54:12.143Z,29.77
2022-11-10T00:56:58.628Z,26.85
2022-11-10T00:59:44.342Z,26.40
2022-11-10T01:02:30.334Z,26.50
2022-11-10T01:05:16.360Z,28.90
2022-11-10T01:08:02.047Z,29.33
2022-11-10T01:10:48.029Z,25.50
2022-11-10T01:13:34.414Z,27.42
2022-11-10T01:16:26.257Z,31.85
2022-11-10T01:19:11.954Z,30.65
2022-11-10T01:21:58.168Z,27.45
2022-11-10T01:24:44.120Z,27.40
2022-11-10T01:27:30.418Z,30.38
2022-11-10T01:30:16.966Z,33.45
2022-11-10T01:33:03.043Z,35.45
2022-11-10T01:35:48.832Z,38.95
2022-11-10T01:38:37.622Z,44.63
2022-11-10T01:41:23.731Z,39.30
2022-11-10T01:44:40.762Z,45.45
2022-11-10T01:47:26.821Z,41.95
2022-11-10T01:50:12.916Z,44.75
2022-11-10T01:53:03.493Z,46.90
2022-11-10T01:55:50.658Z,42.97
2022-11-10T01:58:40.411Z,44.42
2022-11-10T02:01:26.861Z,45.20
2022-11-10T02:04:16.484Z,45.28
2022-11-10T02:07:02.942Z,45.60
2022-11-10T02:09:49.046Z,43.13
2022-11-10T02:12:37.525Z,45.75
2022-11-10T02:15:25.569Z,42.03
2022-11-10T02:18:11.873Z,45.35
2022-11-10T02:20:58.105Z,43.50
2022-11-10T02:23:46.995Z,42.58
2022-11-10T02:26:37.808Z,43.30
2022-11-10T02:29:25.763Z,48.42
2022-11-10T02:32:11.795Z,47.13
2022-11-10T02:34:57.445Z,47.72
2022-11-10T02:37:43.261Z,48.10
2022-11-10T02:40:28.853Z,47.40
2022-11-10T02:43:17.974Z,44.25
2022-11-10T02:46:04.049Z,43.95
2022-11-10T02:48:49.954Z,46.35
2022-11-10T02:51:35.702Z,51.90
2022-11-10T02:54:21.931Z,53.20
2022-11-10T02:57:08.598Z,49.38
2022-11-10T02:59:54.712Z,43.90
2022-11-10T03:02:42.737Z,43.45
2022-11-10T03:05:32.489Z,44.90
2022-11-10T03:08:18.294Z,46.75
2022-11-10T03:11:04.748Z,49.75
2022-11-10T03:14:01.423Z,48.33
2022-11-10T03:16:48.077Z,46.45
2022-11-10T03:19:34.012Z,41.35
2022-11-10T03:22:19.731Z,39.97
2022-11-10T03:25:05.980Z,40.92
2022-11-10T03:27:51.652Z,41.17
2022-11-10T03:30:40.336Z,39.72
2022-11-10T03:33:26.302Z,37.70
2022-11-10T03:36:12.140Z,36.08
2022-11-10T03:38:58.279Z,38.78
2022-11-10T03:41:43.994Z,40.15
2022-11-10T03:44:29.832Z,44.17
2022-11-10T03:47:15.872Z,45.75
2022-11-10T03:50:01.805Z,44.75
2022-11-10T03:52:47.790Z,42.67
2022-11-10T03:55:33.439Z,40.22
2022-11-10T03:58:19.287Z,36.60
2022-11-10T04:01:05.117Z,39.95
2022-11-10T04:03:54.117Z,37.72
2022-11-10T04:06:58.324Z,36.88
2022-11-10T04:09:44.463Z,33.47
2022-11-10T04:12:48.802Z,34.97
2022-11-10T04:15:44.275Z,36.50
2022-11-10T04:18:29.965Z,35.60
2022-11-10T04:21:15.972Z,36.90
2022-11-10T04:24:01.827Z,37.60
2022-11-10T04:26:49.828Z,34.00
2022-11-10T04:29:35.828Z,34.70
2022-11-10T04:32:21.703Z,31.42
2022-11-10T04:35:10.172Z,33.60
2022-11-10T04:37:56.215Z,34.40
2022-11-10T04:40:44.947Z,35.92
2022-11-10T04:43:31.548Z,35.60
2022-11-10T04:46:25.082Z,33.45
2022-11-10T04:49:11.213Z,36.58
2022-11-10T04:51:57.409Z,34.83
2022-11-10T04:54:43.411Z,36.88
2022-11-10T04:57:29.368Z,33.47
2022-11-10T05:00:15.721Z,36.47
2022-11-10T05:03:04.007Z,37.90
2022-11-10T05:05:49.945Z,37.58
2022-11-10T05:08:37.717Z,35.85
2022-11-10T05:11:26.029Z,33.80
2022-11-10T05:14:11.871Z,37.70
2022-11-10T05:16:57.925Z,37.08
2022-11-10T05:19:44.099Z,37.92
2022-11-10T05:22:30.032Z,33.85
2022-11-10T05:25:16.352Z,40.42
2022-11-10T05:28:04.023Z,41.22
2022-11-10T05:30:49.822Z,34.80
2022-11-10T05:33:37.758Z,40.97
2022-11-10T05:36:23.694Z,38.13
2022-11-10T05:39:09.238Z,42.70
2022-11-10T05:41:55.452Z,35.75
2022-11-10T05:44:41.163Z,37.05
2022-11-10T05:47:26.741Z,38.05
2022-11-10T05:50:12.730Z,40.83
2022-11-10T05:52:58.464Z,40.85
2022-11-10T05:55:44.464Z,39.83
2022-11-10T05:58:33.149Z,35.88
2022-11-10T06:01:19.003Z,37.00
2022-11-10T06:04:05.243Z,38.78
2022-11-10T06:06:51.460Z,41.88
2022-11-10T06:09:38.068Z,37.60
2022-11-10T06:12:30.353Z,38.20
2022-11-10T06:15:16.979Z,40.60
2022-11-10T06:18:03.600Z,42.60
2022-11-10T06:20:49.340Z,43.25
2022-11-10T06:23:35.145Z,42.17
2022-11-10T06:26:20.949Z,44.28
2022-11-10T06:29:06.884Z,41.60
2022-11-10T06:31:53.097Z,44.40
2022-11-10T06:34:38.797Z,46.25
2022-11-10T06:37:24.625Z,45.95
2022-11-10T06:40:12.858Z,48.10
2022-11-10T06:42:59.814Z,43.70
2022-11-10T06:45:45.783Z,42.25
2022-11-10T06:48:31.990Z,41.78
2022-11-10T06:51:20.531Z,41.13
2022-11-10T06:54:10.156Z,46.80
2022-11-10T06:56:56.043Z,42.03
2022-11-10T06:59:42.048Z,40.30
2022-11-10T07:02:27.690Z,41.25
2022-11-10T07:05:15.347Z,40.17
2022-11-10T07:08:06.962Z,36.72
2022-11-10T07:10:55.527Z,33.20
2022-11-10T07:13:41.458Z,30.25
2022-11-10T07:16:27.364Z,32.63
2022-11-10T07:19:13.298Z,28.77
2022-11-10T07:21:59.063Z,29.38
2022-11-10T07:24:45.895Z,32.42
2022-11-10T07:27:32.429Z,35.35
2022-11-10T07:30:18.502Z,32.83
2022-11-10T07:33:13.417Z,35.30
2022-11-10T07:36:01.466Z,33.47
2022-11-10T07:38:47.595Z,32.28
2022-11-10T07:41:33.585Z,32.58
2022-11-10T07:44:19.693Z,34.95
2022-11-10T07:47:05.514Z,35.65
2022-11-10T07:49:51.654Z,33.08
2022-11-10T07:52:37.947Z,34.22
2022-11-10T07:55:23.848Z,34.03
2022-11-10T07:58:14.287Z,35.53
2022-11-10T08:01:00.384Z,36.78
2022-11-10T08:03:46.690Z,33.17
2022-11-10T08:06:36.097Z,32.35
2022-11-10T08:09:22.471Z,32.00
2022-11-10T08:12:11.253Z,32.65
2022-11-10T08:14:56.944Z,36.78
2022-11-10T08:17:43.304Z,32.92
2022-11-10T08:20:29.708Z,30.55
2022-11-10T08:23:16.308Z,31.77
2022-11-10T08:26:02.219Z,30.48
2022-11-10T08:28:48.372Z,34.33
2022-11-10T08:31:34.347Z,27.00
2022-11-10T08:34:21.749Z,27.50
2022-11-10T08:37:07.884Z,23.90
2022-11-10T08:39:54.005Z,22.00
2022-11-10T08:42:40.037Z,21.60
2022-11-10T08:45:26.807Z,21.48
2022-11-10T08:48:15.669Z,25.25
2022-11-10T08:51:02.225Z,26.60
2022-11-10T08:53:48.505Z,28.30
2022-11-10T08:56:34.675Z,27.23
2022-11-10T08:59:21.949Z,24.85
2022-11-10T09:02:10.305Z,24.00
2022-11-10T09:04:56.437Z,23.13
2022-11-10T09:07:45.193Z,26.70
2022-11-10T09:10:35.733Z,24.38
2022-11-10T09:13:27.757Z,23.08
2022-11-10T09:16:15.322Z,21.13
2022-11-10T09:19:01.166Z,23.40
2022-11-10T09:21:49.452Z,25.38
2022-11-10T09:24:35.542Z,23.50
2022-11-10T09:27:21.801Z,25.42
2022-11-10T09:30:16.264Z,25.40
2022-11-10T09:33:03.805Z,25.27
2022-11-10T09:35:50.881Z,27.30
2022-11-10T09:38:39.383Z,26.88
2022-11-10T09:41:29.862Z,26.55
2022-11-10T09:44:39.162Z,27.63
2022-11-10T09:47:56.384Z,27.60
2022-11-10T09:50:51.610Z,25.40
2022-11-10T09:53:44.708Z,31.13
2022-11-10T09:56:37.588Z,28.40
2022-11-10T09:59:28.112Z,25.25
2022-11-10T10:02:30.844Z,27.02
2022-11-10T10:05:28.081Z,27.00
2022-11-10T10:08:39.469Z,29.15
2022-11-10T10:12:02.591Z,26.40
2022-11-10T10:15:14.533Z,27.65
2022-11-10T10:18:25.671Z,27.20
2022-11-10T10:21:34.868Z,25.58
2022-11-10T10:24:23.144Z,28.33
2022-11-10T10:27:20.057Z,28.63
2022-11-10T10:30:17.489Z,29.52
2022-11-10T10:33:14.563Z,31.70
2022-11-10T10:36:08.461Z,28.65
2022-11-10T10:39:01.756Z,31.27
2022-11-10T10:41:47.811Z,28.45
2022-11-10T10:44:33.681Z,29.67
2022-11-10T10:47:20.092Z,31.05
2022-11-10T10:50:22.780Z,32.25
2022-11-10T10:53:11.112Z,35.75
2022-11-10T10:56:01.125Z,31.70
2022-11-10T10:58:56.266Z,30.80
2022-11-10T11:01:43.931Z,33.65
2022-11-10T11:04:32.903Z,33.75
2022-11-10T11:07:25.345Z,33.80
2022-11-10T11:10:44.945Z,31.63
2022-11-10T11:13:34.093Z,31.65
2022-11-10T11:16:20.196Z,34.60
2022-11-10T11:19:08.889Z,36.67
2022-11-10T11:22:13.356Z,30.38
2022-11-10T11:25:21.872Z,34.20
2022-11-10T11:28:26.084Z,33.85
2022-11-10T11:31:41.736Z,33.45
2022-11-10T11:34:38.394Z,33.40
2022-11-10T11:37:59.417Z,31.88
2022-11-10T11:41:22.519Z,34.65
2022-11-10T11:44:34.867Z,35.95
2022-11-10T11:47:42.309Z,34.75
2022-11-10T11:50:41.685Z,30.38
2022-11-10T11:53:50.471Z,36.63
2022-11-10T11:56:46.149Z,36.28
2022-11-10T12:00:03.746Z,39.63
2022-11-10T12:03:14.372Z,37.95
2022-11-10T12:06:23.240Z,38.42
2022-11-10T12:09:19.263Z,36.85
2022-11-10T12:12:23.981Z,39.10
2022-11-10T12:15:31.873Z,36.78
2022-11-10T12:18:32.318Z,38.50
2022-11-10T12:21:43.404Z,38.67
2022-11-10T12:25:09.870Z,40.70
2022-11-10T12:28:23.973Z,43.33
2022-11-10T12:31:18.195Z,40.95
2022-11-10T12:34:22.816Z,40.72
2022-11-10T12:37:16.200Z,36.00
2022-11-10T12:40:10.289Z,39.17
2022-11-10T12:43:03.349Z,35.63
2022-11-10T12:45:58.253Z,37.75
2022-11-10T12:49:07.824Z,39.20
2022-11-10T12:52:05.336Z,37.50
2022-11-10T12:54:51.526Z,35.35
2022-11-10T12:57:41.457Z,36.95
2022-11-10T13:00:35.354Z,38.35
2022-11-10T13:03:26.919Z,38.65
2022-11-10T13:06:26.777Z,39.55
2022-11-10T13:09:29.013Z,40.45
2022-11-10T13:15:41.636Z,36.28
2022-11-10T13:18:30.268Z,37.75
2022-11-10T13:21:16.459Z,36.15
2022-11-10T13:24:08.200Z,35.22
2022-11-10T13:26:55.385Z,33.37
2022-11-10T13:29:56.437Z,31.95
2022-11-10T13:32:43.148Z,31.17
2022-11-10T13:35:29.016Z,36.35
2022-11-10T13:38:35.617Z,37.10
2022-11-10T13:41:26.379Z,37.05
2022-11-10T13:44:30.726Z,36.03
2022-11-10T13:47:35.064Z,35.58
2022-11-10T13:50:40.337Z,36.03
2022-11-10T13:53:48.431Z,35.00
2022-11-10T13:57:04.686Z,33.67
2022-11-10T14:00:06.153Z,40.05
2022-11-10T14:02:57.255Z,35.70
2022-11-10T14:06:02.144Z,35.63
2022-11-10T14:08:59.356Z,36.17
2022-11-10T14:12:15.653Z,36.35
2022-11-10T14:15:15.027Z,38.90
2022-11-10T14:18:01.125Z,36.85
2022-11-10T14:20:54.117Z,38.47
2022-11-10T14:23:48.290Z,38.67
2022-11-10T14:26:44.696Z,42.60
2022-11-10T14:29:34.628Z,40.33
2022-11-10T14:32:24.745Z,39.80
2022-11-10T14:35:22.824Z,39.78
2022-11-10T14:38:37.327Z,42.25
2022-11-10T14:41:24.685Z,41.67
2022-11-10T14:44:19.845Z,42.15
2022-11-10T14:47:33.087Z,40.13
2022-11-10T14:50:21.867Z,40.88
2022-11-10T14:53:33.511Z,39.92
2022-11-10T14:56:23.380Z,44.38
2022-11-10T14:59:13.886Z,41.53
2022-11-10T15:02:02.073Z,42.40
2022-11-10T15:04:50.949Z,42.75
2022-11-10T15:07:38.105Z,41.42
2022-11-10T15:10:27.902Z,39.15
2022-11-10T15:13:18.303Z,39.75
2022-11-10T15:16:30.715Z,41.85
2022-11-10T15:19:28.536Z,43.20
2022-11-10T15:22:19.346Z,42.08
2022-11-10T15:25:16.613Z,41.35
2022-11-10T15:28:05.027Z,56.00
2022-11-10T15:30:54.078Z,53.13
2022-11-10T15:33:46.647Z,50.47
2022-11-10T15:36:34.997Z,53.78
2022-11-10T15:39:25.198Z,48.05
2022-11-10T15:42:23.396Z,53.50
2022-11-10T15:45:09.953Z,49.67
2022-11-10T15:47:58.587Z,50.05
2022-11-10T15:50:48.002Z,53.17
2022-11-10T15:53:38.554Z,50.53
2022-11-10T15:56:25.347Z,54.42
2022-11-10T15:59:11.545Z,50.08
2022-11-10T16:01:57.884Z,54.22
2022-11-10T16:04:44.059Z,50.17
2022-11-10T16:07:30.215Z,54.88
2022-11-10T16:10:16.496Z,50.25
2022-11-10T16:13:02.290Z,52.13
2022-11-10T16:15:51.728Z,53.72
2022-11-10T16:18:42.642Z,52.58
2022-11-10T16:21:29.836Z,53.45
2022-11-10T16:24:15.787Z,51.53
2022-11-10T16:27:01.721Z,55.17
2022-11-10T16:29:48.066Z,53.58
2022-11-10T16:32:33.931Z,50.60
2022-11-10T16:35:19.905Z,54.15
2022-11-10T16:38:17.773Z,55.63
2022-11-10T16:41:04.639Z,64.40
2022-11-10T16:43:52.259Z,60.85
2022-11-10T16:46:38.642Z,55.10
2022-11-10T16:49:33.007Z,48.83
2022-11-10T16:52:19.361Z,50.58
2022-11-10T16:55:05.586Z,53.53
2022-11-10T16:57:51.660Z,52.67
2022-11-10T17:00:38.738Z,52.33
2022-11-10T17:03:32.885Z,57.53
2022-11-10T17:06:21.568Z,55.72
2022-11-10T17:09:14.434Z,53.80
2022-11-10T17:12:00.319Z,49.90
2022-11-10T17:14:48.999Z,51.97
2022-11-10T17:17:36.440Z,55.10
2022-11-10T17:20:40.592Z,53.25
2022-11-10T17:23:27.077Z,51.80
2022-11-10T17:26:18.124Z,54.33
2022-11-10T17:29:04.263Z,53.38
2022-11-10T17:31:50.503Z,51.83
2022-11-10T17:34:37.156Z,53.05
2022-11-10T17:37:23.162Z,52.53
2022-11-10T17:40:21.879Z,57.28
2022-11-10T17:43:12.392Z,53.50
2022-11-10T17:45:58.196Z,55.55
2022-11-10T17:48:44.006Z,54.67
2022-11-10T17:51:33.230Z,51.85
2022-11-10T17:54:19.035Z,49.78
2022-11-10T17:57:11.783Z,56.08
2022-11-10T17:59:57.835Z,56.25
2022-11-10T18:02:45.643Z,54.03
2022-11-10T18:05:31.300Z,53.92
2022-11-10T18:08:18.036Z,55.10
2022-11-10T18:11:04.156Z,57.30
2022-11-10T18:13:50.215Z,49.67
2022-11-10T18:16:37.325Z,53.75
2022-11-10T18:19:27.085Z,49.80
2022-11-10T18:22:13.411Z,49.40
2022-11-10T18:24:59.492Z,54.00
2022-11-10T18:27:45.323Z,53.22
2022-11-10T18:30:35.185Z,50.72
2022-11-10T18:33:21.940Z,49.55
2022-11-10T18:36:09.285Z,52.97
2022-11-10T18:38:55.275Z,54.42
2022-11-10T18:41:52.750Z,52.78
2022-11-10T18:44:38.645Z,251.60
2022-11-10T18:47:24.730Z,101.38
2022-11-10T18:50:11.215Z,62.65
2022-11-10T18:52:57.010Z,56.00
2022-11-10T18:55:52.782Z,54.08
2022-11-10T18:58:38.819Z,51.50
2022-11-10T19:01:25.235Z,50.63
2022-11-10T19:04:13.512Z,54.75
2022-11-10T19:06:59.354Z,53.85
2022-11-10T19:09:45.683Z,54.55
2022-11-10T19:12:31.963Z,49.45
2022-11-10T19:15:17.654Z,51.63
2022-11-10T19:18:03.634Z,52.67
2022-11-10T19:20:49.762Z,49.13
2022-11-10T19:23:36.304Z,53.08
2022-11-10T19:26:23.553Z,53.38
2022-11-10T19:29:09.668Z,50.70
2022-11-10T19:31:55.663Z,52.65
2022-11-10T19:34:41.653Z,51.50
2022-11-10T19:37:32.026Z,53.78
2022-11-10T19:40:21.239Z,60.33
2022-11-10T19:43:10.351Z,53.67
2022-11-10T19:45:57.018Z,48.92
2022-11-10T19:48:44.070Z,53.25
2022-11-10T19:51:30.363Z,53.33
2022-11-10T19:54:17.314Z,53.45
2022-11-10T19:57:03.424Z,63.78
2022-11-10T19:59:49.496Z,58.30
2022-11-10T20:02:35.337Z,51.05
2022-11-10T20:05:24.304Z,51.97
2022-11-10T20:08:12.069Z,50.72
2022-11-10T20:11:06.428Z,50.83
2022-11-10T20:13:55.388Z,51.10
2022-11-10T20:16:41.181Z,46.53
2022-11-10T20:19:27.073Z,46.67
2022-11-10T20:22:12.982Z,50.35
2022-11-10T20:24:59.317Z,43.40
2022-11-10T20:27:45.489Z,41.35
2022-11-10T20:30:36.258Z,65.05
2022-11-10T20:33:22.313Z,38.67
2022-11-10T20:36:20.174Z,45.88
2022-11-10T20:39:07.010Z,42.35
2022-11-10T20:41:53.063Z,42.70
2022-11-10T20:44:39.285Z,44.10
2022-11-10T20:47:26.191Z,39.60
2022-11-10T20:50:16.359Z,36.05
2022-11-10T20:53:05.962Z,45.90
2022-11-10T20:56:00.936Z,42.10
2022-11-10T20:58:47.346Z,39.83
2022-11-10T21:01:33.674Z,41.08
2022-11-10T21:04:21.995Z,40.92
2022-11-10T21:07:08.362Z,38.45
2022-11-10T21:09:54.631Z,41.35
2022-11-10T21:12:49.597Z,43.58
2022-11-10T21:15:38.977Z,36.45
2022-11-10T21:18:34.820Z,39.67
2022-11-10T21:21:23.599Z,40.60
2022-11-10T21:24:10.664Z,41.17
2022-11-10T21:26:57.824Z,41.17
2022-11-10T21:29:44.262Z,38.60
2022-11-10T21:32:30.383Z,40.72
2022-11-10T21:35:16.761Z,39.03
2022-11-10T21:38:03.169Z,38.47
2022-11-10T21:40:49.160Z,42.30
2022-11-10T21:43:35.749Z,40.03
2022-11-10T21:46:21.594Z,40.67
2022-11-10T21:49:08.289Z,39.25
2022-11-10T21:51:54.809Z,37.58
2022-11-10T21:54:40.747Z,34.67
2022-11-10T21:57:26.798Z,37.20
2022-11-10T22:00:13.562Z,40.05
2022-11-10T22:03:04.970Z,33.03
2022-11-10T22:05:50.501Z,33.80
2022-11-10T22:08:38.918Z,35.30
2022-11-10T22:11:43.307Z,36.08
2022-11-10T22:14:48.062Z,34.55
2022-11-10T22:17:52.261Z,34.20
2022-11-10T22:20:38.287Z,32.78
2022-11-10T22:23:44.324Z,33.38
2022-11-10T22:26:30.533Z,32.33
2022-11-10T22:29:16.910Z,38.00
2022-11-10T22:32:05.390Z,35.63
2022-11-10T22:34:54.352Z,38.17
2022-11-10T22:37:40.115Z,33.15
2022-11-10T22:40:45.956Z,31.92
2022-11-10T22:43:50.313Z,32.40
2022-11-10T22:46:45.929Z,31.95
2022-11-10T22:49:31.987Z,27.13
2022-11-10T22:52:17.741Z,27.13
2022-11-10T22:55:06.644Z,29.17
2022-11-10T22:57:53.149Z,29.73
2022-11-10T23:00:40.914Z,31.55
2022-11-10T23:03:26.809Z,32.75
2022-11-10T23:06:12.874Z,32.00
2022-11-10T23:08:59.994Z,27.38
2022-11-10T23:11:45.838Z,31.10
2022-11-10T23:14:31.835Z,33.70
2022-11-10T23:17:17.706Z,29.55
2022-11-10T23:20:04.362Z,32.47
2022-11-10T23:22:50.255Z,31.30
2022-11-10T23:25:36.235Z,32.03
2022-11-10T23:28:22.313Z,27.60
2022-11-10T23:31:12.453Z,31.75
2022-11-10T23:33:58.980Z,30.55
2022-11-10T23:36:45.162Z,29.42
2022-11-10T23:39:31.079Z,26.88
2022-11-10T23:42:17.218Z,30.73
2022-11-10T23:45:03.445Z,28.08
2022-11-10T23:47:49.449Z,28.10
2022-11-10T23:50:35.532Z,28.00
2022-11-10T23:53:21.858Z,27.40
2022-11-10T23:56:11.961Z,25.75
2022-11-10T23:58:57.990Z,25.83
